createdAt,value
2019-05-28T00:00:45.209Z,0.80
2019-05-28T00:03:32.757Z,0.93
2019-05-28T00:06:20.109Z,1.00
2019-05-28T00:09:08.730Z,0.80
2019-05-28T00:11:56.299Z,1.00
2019-05-28T00:14:44.104Z,0.50
2019-05-28T00:17:32.240Z,1.17
2019-05-28T00:20:19.976Z,0.80
2019-05-28T00:23:07.412Z,0.90
2019-05-28T00:25:55.007Z,0.60
2019-05-28T00:28:42.378Z,0.87
2019-05-28T00:31:29.405Z,0.80
2019-05-28T00:34:17.484Z,1.00
2019-05-28T00:37:05.155Z,0.87
2019-05-28T00:39:52.858Z,0.83
2019-05-28T00:42:40.589Z,0.80
2019-05-28T00:45:29.386Z,0.87
2019-05-28T00:48:18.038Z,0.80
2019-05-28T00:51:05.721Z,0.80
2019-05-28T00:53:53.491Z,0.90
2019-05-28T00:56:41.566Z,0.97
2019-05-28T00:59:29.453Z,1.00
2019-05-28T01:02:17.199Z,0.80
2019-05-28T01:05:05.313Z,0.90
2019-05-28T01:07:52.381Z,0.70
2019-05-28T01:10:40.131Z,0.77
2019-05-28T01:13:27.647Z,0.90
2019-05-28T01:16:15.175Z,0.77
2019-05-28T01:19:02.728Z,0.80
2019-05-28T01:21:50.342Z,0.70
2019-05-28T01:24:37.779Z,0.60
2019-05-28T01:27:25.389Z,0.50
2019-05-28T01:30:13.075Z,0.60
2019-05-28T01:33:00.435Z,0.60
2019-05-28T01:35:47.429Z,0.50
2019-05-28T01:38:35.268Z,0.53
2019-05-28T01:41:22.709Z,0.60
2019-05-28T01:44:10.237Z,0.70
2019-05-28T01:46:57.326Z,0.80
2019-05-28T01:49:44.645Z,0.80
2019-05-28T01:52:32.391Z,0.77
2019-05-28T01:55:19.831Z,0.70
2019-05-28T01:58:07.398Z,0.80
2019-05-28T02:01:11.201Z,0.70
2019-05-28T02:03:43.635Z,0.77
2019-05-28T02:06:31.531Z,0.50
2019-05-28T02:09:19.089Z,0.77
2019-05-28T02:12:06.575Z,0.93
2019-05-28T02:14:53.926Z,0.70
2019-05-28T02:17:41.662Z,0.60
2019-05-28T02:20:29.428Z,0.60
2019-05-28T02:23:16.846Z,0.57
2019-05-28T02:26:05.022Z,0.67
2019-05-28T02:28:54.061Z,0.67
2019-05-28T02:31:41.754Z,0.50
2019-05-28T02:34:29.177Z,0.60
2019-05-28T02:37:16.687Z,0.70
2019-05-28T02:40:04.986Z,0.33
2019-05-28T02:42:52.090Z,0.60
2019-05-28T02:45:39.457Z,0.60
2019-05-28T02:48:26.781Z,0.70
2019-05-28T02:51:15.396Z,0.40
2019-05-28T02:54:03.183Z,0.53
2019-05-28T02:56:50.879Z,0.50
2019-05-28T02:59:38.929Z,0.70
2019-05-28T03:02:28.290Z,0.53
2019-05-28T03:05:15.934Z,0.40
2019-05-28T03:08:04.486Z,0.50
2019-05-28T03:11:02.467Z,0.40
2019-05-28T03:13:41.133Z,0.50
2019-05-28T03:16:29.729Z,0.50
2019-05-28T03:19:18.302Z,0.60
2019-05-28T03:22:07.658Z,0.50
2019-05-28T03:24:55.641Z,0.60
2019-05-28T03:27:43.210Z,0.60
2019-05-28T03:30:30.643Z,0.60
2019-05-28T03:33:18.188Z,0.57
2019-05-28T03:36:07.124Z,0.60
2019-05-28T03:38:56.453Z,0.50
2019-05-28T03:41:44.729Z,0.70
2019-05-28T03:44:31.761Z,0.70
2019-05-28T03:47:19.202Z,0.67
2019-05-28T03:50:07.145Z,0.70
2019-05-28T03:52:54.470Z,0.73
2019-05-28T03:55:41.669Z,0.70
2019-05-28T03:58:29.015Z,0.80
2019-05-28T04:01:16.759Z,0.57
2019-05-28T04:04:04.110Z,0.77
2019-05-28T04:06:51.694Z,0.80
2019-05-28T04:09:39.386Z,0.73
2019-05-28T04:12:26.546Z,0.90
2019-05-28T04:15:14.135Z,1.23
2019-05-28T04:18:01.327Z,1.00
2019-05-28T04:20:48.873Z,1.20
2019-05-28T04:23:36.378Z,0.90
2019-05-28T04:26:23.701Z,0.90
2019-05-28T04:29:11.588Z,0.93
2019-05-28T04:31:59.036Z,1.10
2019-05-28T04:34:48.776Z,1.07
2019-05-28T04:37:36.419Z,1.20
2019-05-28T04:40:23.806Z,1.30
2019-05-28T04:43:11.232Z,1.17
2019-05-28T04:45:58.742Z,1.30
2019-05-28T04:48:46.174Z,1.70
2019-05-28T04:51:37.154Z,1.60
2019-05-28T04:54:24.642Z,1.70
2019-05-28T04:57:12.121Z,1.70
2019-05-28T04:59:59.430Z,1.80
2019-05-28T05:02:58.537Z,2.13
2019-05-28T05:05:36.743Z,1.67
2019-05-28T05:08:24.311Z,1.73
2019-05-28T05:11:11.670Z,1.67
2019-05-28T05:13:59.046Z,1.60
2019-05-28T05:16:46.200Z,2.00
2019-05-28T05:19:34.227Z,1.40
2019-05-28T05:22:21.881Z,1.40
2019-05-28T05:25:09.851Z,1.60
2019-05-28T05:27:57.557Z,1.67
2019-05-28T05:30:45.410Z,1.70
2019-05-28T05:33:33.396Z,1.40
2019-05-28T05:36:21.449Z,2.13
2019-05-28T05:39:09.270Z,1.70
2019-05-28T05:41:56.639Z,1.57
2019-05-28T05:44:46.598Z,2.00
2019-05-28T05:47:34.363Z,2.27
2019-05-28T05:50:23.749Z,1.80
2019-05-28T05:53:11.225Z,1.67
2019-05-28T05:55:58.474Z,1.93
2019-05-28T05:58:45.886Z,2.10
2019-05-28T06:01:33.353Z,2.20
2019-05-28T06:04:20.782Z,2.40
2019-05-28T06:07:08.131Z,1.97
2019-05-28T06:09:55.305Z,2.33
2019-05-28T06:12:42.415Z,2.53
2019-05-28T06:15:29.758Z,2.23
2019-05-28T06:18:17.535Z,2.40
2019-05-28T06:21:13.793Z,2.70
2019-05-28T06:23:54.232Z,2.57
2019-05-28T06:26:41.552Z,2.37
2019-05-28T06:29:29.206Z,2.40
2019-05-28T06:32:16.984Z,2.43
2019-05-28T06:35:05.000Z,2.43
2019-05-28T06:37:52.586Z,2.33
2019-05-28T06:40:40.251Z,2.50
2019-05-28T06:43:27.763Z,2.03
2019-05-28T06:46:15.286Z,2.20
2019-05-28T06:49:02.793Z,2.17
2019-05-28T06:51:50.140Z,2.50
2019-05-28T06:54:38.025Z,2.60
2019-05-28T06:57:26.146Z,2.23
2019-05-28T07:00:13.905Z,2.60
2019-05-28T07:03:01.008Z,3.07
2019-05-28T07:06:03.338Z,2.37
2019-05-28T07:08:38.535Z,2.73
2019-05-28T07:11:26.173Z,2.57
2019-05-28T07:14:14.031Z,2.33
2019-05-28T07:17:01.424Z,2.43
2019-05-28T07:19:48.789Z,2.20
2019-05-28T07:22:36.327Z,2.57
2019-05-28T07:25:23.610Z,2.87
2019-05-28T07:28:12.066Z,2.57
2019-05-28T07:30:59.917Z,2.63
2019-05-28T07:33:47.767Z,2.40
2019-05-28T07:36:37.304Z,2.30
2019-05-28T07:39:24.730Z,2.40
2019-05-28T07:42:12.659Z,1.90
2019-05-28T07:45:00.317Z,2.30
2019-05-28T07:47:49.283Z,2.43
2019-05-28T07:50:36.828Z,2.30
2019-05-28T07:53:38.730Z,2.40
2019-05-28T07:56:13.295Z,2.90
2019-05-28T07:59:01.021Z,2.43
2019-05-28T08:01:48.631Z,3.03
2019-05-28T08:04:46.721Z,3.00
2019-05-28T08:07:25.099Z,2.73
2019-05-28T08:10:13.126Z,3.57
2019-05-28T08:13:01.609Z,3.37
2019-05-28T08:15:49.253Z,3.20
2019-05-28T08:18:36.933Z,2.57
2019-05-28T08:21:25.034Z,1.93
2019-05-28T08:24:12.427Z,2.33
2019-05-28T08:27:00.434Z,2.60
2019-05-28T08:29:47.838Z,2.23
2019-05-28T08:32:35.169Z,2.10
2019-05-28T08:35:22.914Z,2.17
2019-05-28T08:38:10.413Z,2.80
2019-05-28T08:40:57.603Z,2.47
2019-05-28T08:43:45.626Z,2.40
2019-05-28T08:46:33.027Z,2.70
2019-05-28T08:49:23.826Z,3.10
2019-05-28T08:52:09.738Z,2.60
2019-05-28T08:54:57.028Z,2.67
2019-05-28T08:57:44.503Z,2.53
2019-05-28T09:00:40.061Z,3.00
2019-05-28T09:03:27.778Z,2.93
2019-05-28T09:06:15.183Z,2.30
2019-05-28T09:09:02.906Z,2.60
2019-05-28T09:11:50.469Z,2.30
2019-05-28T09:14:54.859Z,2.80
2019-05-28T09:17:28.487Z,2.77
2019-05-28T09:20:16.266Z,2.30
2019-05-28T09:23:04.082Z,2.30
2019-05-28T09:25:51.650Z,2.37
2019-05-28T09:28:39.166Z,2.37
2019-05-28T09:31:28.799Z,2.30
2019-05-28T09:34:16.628Z,2.03
2019-05-28T09:37:03.721Z,2.10
2019-05-28T09:39:51.179Z,1.90
2019-05-28T09:42:38.631Z,2.20
2019-05-28T09:45:26.886Z,1.70
2019-05-28T09:48:13.999Z,1.67
2019-05-28T09:51:01.446Z,1.30
2019-05-28T09:53:48.734Z,1.60
2019-05-28T09:56:36.151Z,1.70
2019-05-28T09:59:23.469Z,1.67
2019-05-28T10:02:10.997Z,1.73
2019-05-28T10:04:58.577Z,1.93
2019-05-28T10:07:46.254Z,1.80
2019-05-28T10:10:33.824Z,1.53
2019-05-28T10:13:37.283Z,1.77
2019-05-28T10:16:09.782Z,1.90
2019-05-28T10:18:57.113Z,2.00
2019-05-28T10:21:44.721Z,1.77
2019-05-28T10:24:32.241Z,1.90
2019-05-28T10:27:19.882Z,2.10
2019-05-28T10:30:08.408Z,2.20
2019-05-28T10:32:56.263Z,1.70
2019-05-28T10:35:43.730Z,1.70
2019-05-28T10:38:31.047Z,1.70
2019-05-28T10:41:19.423Z,1.80
2019-05-28T10:44:06.892Z,1.40
2019-05-28T10:46:54.257Z,2.00
2019-05-28T10:49:41.781Z,1.33
2019-05-28T10:52:29.209Z,1.70
2019-05-28T10:55:16.596Z,1.43
2019-05-28T10:58:04.094Z,1.40
2019-05-28T11:00:51.532Z,1.53
2019-05-28T11:03:39.483Z,1.40
2019-05-28T11:06:27.245Z,1.50
2019-05-28T11:09:14.638Z,1.33
2019-05-28T11:12:02.525Z,1.47
2019-05-28T11:14:50.002Z,1.33
2019-05-28T11:17:37.679Z,1.23
2019-05-28T11:20:25.093Z,1.40
2019-05-28T11:23:13.026Z,1.20
2019-05-28T11:26:00.777Z,1.47
2019-05-28T11:28:48.166Z,1.30
2019-05-28T11:31:36.214Z,1.27
2019-05-28T11:34:23.876Z,1.10
2019-05-28T11:37:11.621Z,0.90
2019-05-28T11:39:58.974Z,1.00
2019-05-28T11:42:46.340Z,1.10
2019-05-28T11:45:33.980Z,1.10
2019-05-28T11:48:21.387Z,1.10
2019-05-28T11:51:09.031Z,0.80
2019-05-28T11:53:56.911Z,0.90
2019-05-28T11:56:44.515Z,1.30
2019-05-28T11:59:31.609Z,1.17
2019-05-28T12:02:20.013Z,1.00
2019-05-28T12:05:07.908Z,0.90
2019-05-28T12:07:56.240Z,0.87
2019-05-28T12:10:44.335Z,0.90
2019-05-28T12:13:32.266Z,0.60
2019-05-28T12:16:19.431Z,0.80
2019-05-28T12:19:06.623Z,0.87
2019-05-28T12:21:53.863Z,0.70
2019-05-28T12:24:41.639Z,0.70
2019-05-28T12:27:29.388Z,1.30
2019-05-28T12:30:18.697Z,0.70
2019-05-28T12:33:06.211Z,0.67
2019-05-28T12:35:53.705Z,0.70
2019-05-28T12:38:41.500Z,0.90
2019-05-28T12:41:29.198Z,0.90
2019-05-28T12:44:17.526Z,0.53
2019-05-28T12:47:04.998Z,0.87
2019-05-28T12:49:52.484Z,0.90
2019-05-28T12:52:40.200Z,0.80
2019-05-28T12:55:28.028Z,0.70
2019-05-28T12:58:17.558Z,0.70
2019-05-28T13:01:05.759Z,0.70
2019-05-28T13:03:53.406Z,0.90
2019-05-28T13:06:40.574Z,0.70
2019-05-28T13:09:28.272Z,0.83
2019-05-28T13:12:15.603Z,0.70
2019-05-28T13:15:02.724Z,0.60
2019-05-28T13:17:50.132Z,0.70
2019-05-28T13:20:37.770Z,0.67
2019-05-28T13:23:25.333Z,0.53
2019-05-28T13:26:14.674Z,0.60
2019-05-28T13:29:02.508Z,0.60
2019-05-28T13:31:50.631Z,0.73
2019-05-28T13:34:38.015Z,0.63
2019-05-28T13:37:25.668Z,0.53
2019-05-28T13:40:14.008Z,0.40
2019-05-28T13:43:02.029Z,0.67
2019-05-28T13:45:49.845Z,0.50
2019-05-28T13:48:37.257Z,0.80
2019-05-28T13:51:24.732Z,0.50
2019-05-28T13:54:12.656Z,0.70
2019-05-28T13:57:00.059Z,0.70
2019-05-28T13:59:47.500Z,0.47
2019-05-28T14:02:35.412Z,0.70
2019-05-28T14:05:23.194Z,0.63
2019-05-28T14:08:10.606Z,0.60
2019-05-28T14:10:58.638Z,0.50
2019-05-28T14:13:46.167Z,0.67
2019-05-28T14:16:33.665Z,1.03
2019-05-28T14:19:20.994Z,0.80
2019-05-28T14:22:08.730Z,0.90
2019-05-28T14:24:56.918Z,0.50
2019-05-28T14:27:44.669Z,0.80
2019-05-28T14:30:32.801Z,0.67
2019-05-28T14:33:20.429Z,0.70
2019-05-28T14:36:07.938Z,0.60
2019-05-28T14:39:03.115Z,0.57
2019-05-28T14:41:44.170Z,0.60
2019-05-28T14:44:31.434Z,0.50
2019-05-28T14:47:18.804Z,0.60
2019-05-28T14:50:06.754Z,0.50
2019-05-28T14:52:53.914Z,0.77
2019-05-28T14:55:41.533Z,0.70
2019-05-28T14:58:28.966Z,0.60
2019-05-28T15:01:16.373Z,0.70
2019-05-28T15:04:03.807Z,0.87
2019-05-28T15:06:52.321Z,0.70
2019-05-28T15:09:39.724Z,0.70
2019-05-28T15:12:27.280Z,0.80
2019-05-28T15:15:15.328Z,0.80
2019-05-28T15:18:03.035Z,0.80
2019-05-28T15:20:51.091Z,0.80
2019-05-28T15:23:38.555Z,0.90
2019-05-28T15:26:26.242Z,0.83
2019-05-28T15:29:14.030Z,0.90
2019-05-28T15:32:02.743Z,1.17
2019-05-28T15:34:50.615Z,1.20
2019-05-28T15:37:38.859Z,0.77
2019-05-28T15:40:26.690Z,1.20
2019-05-28T15:43:14.285Z,1.27
2019-05-28T15:46:02.001Z,1.30
2019-05-28T15:48:49.444Z,1.10
2019-05-28T15:51:36.752Z,1.40
2019-05-28T15:54:23.897Z,1.17
2019-05-28T15:57:12.012Z,1.17
2019-05-28T16:00:00.582Z,1.20
2019-05-28T16:02:48.041Z,1.27
2019-05-28T16:05:35.961Z,1.30
2019-05-28T16:08:22.940Z,1.07
2019-05-28T16:11:10.826Z,0.90
2019-05-28T16:13:58.345Z,1.17
2019-05-28T16:16:46.322Z,0.90
2019-05-28T16:19:33.816Z,1.30
2019-05-28T16:22:20.787Z,1.17
2019-05-28T16:25:09.275Z,0.90
2019-05-28T16:27:56.686Z,0.80
2019-05-28T16:30:44.270Z,1.10
2019-05-28T16:33:32.482Z,0.90
2019-05-28T16:36:20.500Z,1.03
2019-05-28T16:39:09.148Z,1.10
2019-05-28T16:41:56.634Z,1.13
2019-05-28T16:44:44.258Z,0.90
2019-05-28T16:47:31.962Z,1.13
2019-05-28T16:50:19.212Z,1.10
2019-05-28T16:53:07.227Z,0.87
2019-05-28T16:55:54.339Z,1.00
2019-05-28T16:58:41.805Z,1.13
2019-05-28T17:01:29.035Z,1.20
2019-05-28T17:04:17.366Z,1.20
2019-05-28T17:07:04.651Z,1.30
2019-05-28T17:09:52.267Z,1.20
2019-05-28T17:12:40.068Z,1.00
2019-05-28T17:15:27.647Z,0.97
2019-05-28T17:18:16.082Z,1.03
2019-05-28T17:21:03.523Z,1.07
2019-05-28T17:23:53.110Z,0.93
2019-05-28T17:26:40.409Z,0.80
2019-05-28T17:29:28.039Z,0.80
2019-05-28T17:32:15.466Z,0.80
2019-05-28T17:35:02.673Z,0.80
2019-05-28T17:37:49.853Z,0.90
2019-05-28T17:40:47.949Z,0.80
2019-05-28T17:43:26.594Z,0.60
2019-05-28T17:46:14.323Z,0.90
2019-05-28T17:49:01.891Z,0.90
2019-05-28T17:51:49.298Z,0.60
2019-05-28T17:54:36.630Z,1.00
2019-05-28T17:57:23.739Z,0.83
2019-05-28T18:00:11.786Z,0.60
2019-05-28T18:02:59.838Z,0.83
2019-05-28T18:05:47.618Z,1.00
2019-05-28T18:08:34.966Z,0.93
2019-05-28T18:11:23.646Z,0.83
2019-05-28T18:14:11.388Z,0.80
2019-05-28T18:16:58.930Z,1.17
2019-05-28T18:19:46.581Z,1.00
2019-05-28T18:22:33.906Z,1.37
2019-05-28T18:25:21.374Z,0.60
2019-05-28T18:28:09.182Z,0.80
2019-05-28T18:30:57.490Z,1.10
2019-05-28T18:33:45.325Z,0.70
2019-05-28T18:36:32.711Z,0.70
2019-05-28T18:39:25.165Z,0.80
2019-05-28T18:42:10.408Z,0.60
2019-05-28T18:44:58.535Z,0.70
2019-05-28T18:47:46.625Z,0.60
2019-05-28T18:50:34.105Z,0.70
2019-05-28T18:53:21.090Z,0.90
2019-05-28T18:56:17.165Z,0.80
2019-05-28T18:58:57.281Z,0.63
2019-05-28T19:01:44.939Z,0.60
2019-05-28T19:04:32.722Z,0.80
2019-05-28T19:07:20.438Z,1.17
2019-05-28T19:10:09.294Z,0.83
2019-05-28T19:12:58.323Z,0.80
2019-05-28T19:15:46.210Z,0.70
2019-05-28T19:18:33.960Z,0.60
2019-05-28T19:21:21.108Z,0.50
2019-05-28T19:24:08.442Z,0.80
2019-05-28T19:26:55.732Z,0.70
2019-05-28T19:29:43.381Z,0.60
2019-05-28T19:32:30.914Z,0.83
2019-05-28T19:35:18.701Z,1.20
2019-05-28T19:38:06.017Z,1.10
2019-05-28T19:40:53.470Z,0.80
2019-05-28T19:43:40.705Z,0.77
2019-05-28T19:46:28.260Z,1.00
2019-05-28T19:49:15.348Z,1.03
2019-05-28T19:52:02.864Z,0.70
2019-05-28T19:54:50.484Z,1.00
2019-05-28T19:57:37.688Z,1.10
2019-05-28T20:00:25.156Z,0.87
2019-05-28T20:03:12.330Z,0.90
2019-05-28T20:06:01.643Z,1.00
2019-05-28T20:08:49.069Z,0.80
2019-05-28T20:11:36.521Z,0.70
2019-05-28T20:14:25.274Z,0.83
2019-05-28T20:17:12.586Z,0.77
2019-05-28T20:20:00.564Z,0.73
2019-05-28T20:22:48.319Z,0.77
2019-05-28T20:25:35.808Z,0.90
2019-05-28T20:28:23.343Z,0.77
2019-05-28T20:31:11.070Z,0.90
2019-05-28T20:33:59.046Z,0.80
2019-05-28T20:36:46.902Z,0.93
2019-05-28T20:39:34.438Z,0.80
2019-05-28T20:42:27.281Z,0.60
2019-05-28T20:45:15.384Z,0.97
2019-05-28T20:48:02.768Z,0.70
2019-05-28T20:50:50.352Z,0.80
2019-05-28T20:53:37.698Z,0.80
2019-05-28T20:56:24.952Z,0.73
2019-05-28T20:59:12.556Z,1.00
2019-05-28T21:01:59.647Z,0.63
2019-05-28T21:04:47.847Z,0.70
2019-05-28T21:07:35.644Z,0.73
2019-05-28T21:10:24.740Z,0.80
2019-05-28T21:13:12.389Z,0.63
2019-05-28T21:15:59.999Z,0.70
2019-05-28T21:18:47.591Z,0.70
2019-05-28T21:21:35.046Z,0.70
2019-05-28T21:24:22.564Z,0.50
2019-05-28T21:27:15.367Z,0.70
2019-05-28T21:30:04.306Z,0.80
2019-05-28T21:32:52.590Z,0.83
2019-05-28T21:35:40.469Z,0.60
2019-05-28T21:38:27.588Z,0.77
2019-05-28T21:41:14.962Z,0.90
2019-05-28T21:44:02.515Z,0.80
2019-05-28T21:46:50.262Z,0.60
2019-05-28T21:49:37.895Z,0.80
2019-05-28T21:52:25.517Z,0.60
2019-05-28T21:55:13.341Z,0.77
2019-05-28T21:58:16.882Z,1.00
2019-05-28T22:01:29.138Z,1.40
2019-05-28T22:04:16.751Z,0.93
2019-05-28T22:07:05.438Z,1.20
2019-05-28T22:09:54.045Z,0.93
2019-05-28T22:12:42.026Z,0.90
2019-05-28T22:15:29.277Z,0.70
2019-05-28T22:18:16.804Z,0.90
2019-05-28T22:21:04.645Z,1.00
2019-05-28T22:23:52.172Z,0.97
2019-05-28T22:26:39.631Z,0.83
2019-05-28T22:29:27.217Z,0.83
2019-05-28T22:32:14.754Z,0.73
2019-05-28T22:35:09.026Z,0.80
2019-05-28T22:38:01.384Z,1.10
2019-05-28T22:40:51.394Z,0.77
2019-05-28T22:43:38.806Z,0.80
2019-05-28T22:46:29.117Z,1.07
2019-05-28T22:49:16.668Z,0.80
2019-05-28T22:52:04.266Z,0.80
2019-05-28T22:54:51.584Z,0.70
2019-05-28T22:57:38.933Z,1.00
2019-05-28T23:00:26.932Z,1.03
2019-05-28T23:03:14.285Z,1.00
2019-05-28T23:06:03.139Z,1.00
2019-05-28T23:08:50.917Z,1.20
2019-05-28T23:11:38.399Z,1.57
2019-05-28T23:14:26.116Z,1.10
2019-05-28T23:17:14.069Z,0.93
2019-05-28T23:20:02.756Z,1.23
2019-05-28T23:22:50.096Z,1.30
2019-05-28T23:25:37.786Z,1.07
2019-05-28T23:28:25.088Z,0.90
2019-05-28T23:31:12.470Z,1.30
2019-05-28T23:34:00.274Z,1.13
2019-05-28T23:36:48.016Z,0.90
2019-05-28T23:39:35.843Z,1.10
2019-05-28T23:42:23.308Z,1.40
2019-05-28T23:45:11.816Z,1.17
2019-05-28T23:47:59.222Z,1.20
2019-05-28T23:50:46.622Z,1.23
2019-05-28T23:53:34.043Z,0.90
2019-05-28T23:56:21.306Z,1.23
2019-05-28T23:59:09.731Z,1.00
